createdAt,value
2017-03-12T00:00:14.850Z,1.97
2017-03-12T00:01:25.557Z,1.93
2017-03-12T00:02:35.862Z,1.92
2017-03-12T00:03:46.577Z,1.93
2017-03-12T00:04:57.281Z,1.97
2017-03-12T00:06:07.594Z,2.04
2017-03-12T00:07:18.319Z,2
2017-03-12T00:08:29.035Z,2.05
2017-03-12T00:09:39.789Z,2.04
2017-03-12T00:10:50.522Z,2.04
2017-03-12T00:12:01.220Z,2.07
2017-03-12T00:13:11.143Z,2
2017-03-12T00:14:21.855Z,2.04
2017-03-12T00:15:32.572Z,2.05
2017-03-12T00:16:43.267Z,2.04
2017-03-12T00:17:53.977Z,2.05
2017-03-12T00:19:04.291Z,2.1
2017-03-12T00:20:15.009Z,2.1
2017-03-12T00:21:25.329Z,2.03
2017-03-12T00:22:36.037Z,2.07
2017-03-12T00:23:46.748Z,2.08
2017-03-12T00:24:57.445Z,2.05
2017-03-12T00:26:07.753Z,2.01
2017-03-12T00:27:18.475Z,2.08
2017-03-12T00:28:29.212Z,2.04
2017-03-12T00:29:39.936Z,2.03
2017-03-12T00:30:50.654Z,2.05
2017-03-12T00:32:01.379Z,2.12
2017-03-12T00:33:12.084Z,2.04
2017-03-12T00:34:22.413Z,2.03
2017-03-12T00:35:33.143Z,2.01
2017-03-12T00:36:43.886Z,2.04
2017-03-12T00:37:54.600Z,1.92
2017-03-12T00:39:04.959Z,1.92
2017-03-12T00:40:15.670Z,1.89
2017-03-12T00:41:26.404Z,1.88
2017-03-12T00:42:37.141Z,1.89
2017-03-12T00:43:47.864Z,1.89
2017-03-12T00:44:58.585Z,1.82
2017-03-12T00:46:09.312Z,1.88
2017-03-12T00:47:20.030Z,1.88
2017-03-12T00:48:30.752Z,1.88
2017-03-12T00:49:41.462Z,1.88
2017-03-12T00:50:52.180Z,1.92
2017-03-12T00:52:02.897Z,1.89
2017-03-12T00:53:13.621Z,1.86
2017-03-12T00:54:24.336Z,1.85
2017-03-12T00:55:35.066Z,1.89
2017-03-12T00:56:45.380Z,1.88
2017-03-12T00:57:56.093Z,1.92
2017-03-12T00:59:06.830Z,1.88
2017-03-12T01:00:17.543Z,1.93
2017-03-12T01:01:28.287Z,1.93
2017-03-12T01:02:38.993Z,2
2017-03-12T01:03:49.703Z,1.98
2017-03-12T01:05:00.416Z,2.01
2017-03-12T01:06:11.137Z,2
2017-03-12T01:07:21.469Z,1.93
2017-03-12T01:08:32.198Z,2.01
2017-03-12T01:09:42.915Z,2.03
2017-03-12T01:10:53.261Z,2.04
2017-03-12T01:12:03.979Z,2.05
2017-03-12T01:13:14.286Z,2.05
2017-03-12T01:14:24.607Z,2.03
2017-03-12T01:15:35.321Z,2.01
2017-03-12T01:16:45.631Z,2.14
2017-03-12T01:17:56.354Z,2.04
2017-03-12T01:19:07.074Z,2.04
2017-03-12T01:20:17.788Z,2.05
2017-03-12T01:21:28.497Z,1.95
2017-03-12T01:22:39.227Z,2.12
2017-03-12T01:23:49.936Z,2.03
2017-03-12T01:25:00.641Z,2
2017-03-12T01:26:11.376Z,2.03
2017-03-12T01:27:21.700Z,2.05
2017-03-12T01:28:32.424Z,2.05
2017-03-12T01:29:43.133Z,2.05
2017-03-12T01:30:53.850Z,2.04
2017-03-12T01:32:04.591Z,1.93
2017-03-12T01:33:15.306Z,2.05
2017-03-12T01:34:25.635Z,2.05
2017-03-12T01:35:36.337Z,2
2017-03-12T01:36:46.687Z,2.03
2017-03-12T01:37:57.409Z,1.98
2017-03-12T01:39:08.152Z,2.01
2017-03-12T01:40:18.863Z,2.03
2017-03-12T01:41:29.587Z,2.01
2017-03-12T01:42:40.309Z,2.03
2017-03-12T01:43:51.018Z,2.08
2017-03-12T01:45:01.741Z,1.98
2017-03-12T01:46:12.483Z,1.98
2017-03-12T01:47:23.187Z,1.93
2017-03-12T01:48:33.507Z,1.97
2017-03-12T01:49:44.239Z,2.03
2017-03-12T01:50:54.955Z,1.98
2017-03-12T01:52:05.301Z,2.08
2017-03-12T01:53:16.024Z,2.04
2017-03-12T01:54:26.740Z,2.12
2017-03-12T01:55:37.055Z,2.14
2017-03-12T01:56:47.778Z,2.19
2017-03-12T01:57:58.099Z,2.18
2017-03-12T01:59:08.827Z,2.05
2017-03-12T02:00:19.568Z,1.98
2017-03-12T02:01:30.276Z,2.01
2017-03-12T02:02:40.609Z,2.04
2017-03-12T02:03:51.318Z,2.01
2017-03-12T02:05:02.069Z,2.07
2017-03-12T02:06:12.763Z,2.12
2017-03-12T02:07:23.495Z,2.05
2017-03-12T02:08:33.838Z,2.08
2017-03-12T02:09:44.561Z,2.05
2017-03-12T02:10:55.279Z,1.98
2017-03-12T02:12:05.593Z,2.14
2017-03-12T02:13:16.324Z,2.23
2017-03-12T02:14:27.037Z,2.19
2017-03-12T02:15:37.751Z,2.21
2017-03-12T02:16:48.468Z,2.21
2017-03-12T02:17:59.198Z,2.34
2017-03-12T02:19:09.926Z,2.34
2017-03-12T02:20:20.264Z,2.37
2017-03-12T02:21:30.572Z,2.34
2017-03-12T02:22:41.320Z,2.34
2017-03-12T02:23:52.033Z,2.41
2017-03-12T02:25:02.744Z,2.47
2017-03-12T02:26:13.060Z,2.62
2017-03-12T02:27:23.784Z,2.64
2017-03-12T02:28:34.498Z,2.68
2017-03-12T02:29:45.220Z,2.73
2017-03-12T02:30:55.946Z,2.72
2017-03-12T02:32:06.659Z,2.75
2017-03-12T02:33:17.364Z,2.77
2017-03-12T02:34:27.691Z,2.64
2017-03-12T02:35:38.012Z,2.57
2017-03-12T02:36:48.759Z,2.37
2017-03-12T02:37:59.515Z,2.28
2017-03-12T02:39:10.240Z,2.23
2017-03-12T02:40:20.958Z,2.16
2017-03-12T02:41:31.274Z,2.16
2017-03-12T02:42:41.992Z,2.15
2017-03-12T02:43:52.730Z,1.97
2017-03-12T02:45:03.434Z,2.03
2017-03-12T02:46:13.762Z,1.97
2017-03-12T02:47:24.508Z,1.95
2017-03-12T02:48:35.234Z,1.97
2017-03-12T02:49:45.979Z,1.93
2017-03-12T02:50:56.691Z,1.86
2017-03-12T02:52:07.423Z,1.93
2017-03-12T02:53:18.133Z,1.71
2017-03-12T02:54:28.835Z,1.76
2017-03-12T02:55:39.563Z,1.76
2017-03-12T02:56:50.309Z,1.78
2017-03-12T02:58:01.042Z,1.68
2017-03-12T02:59:11.777Z,1.6
2017-03-12T03:00:22.093Z,1.67
2017-03-12T03:01:32.802Z,1.61
2017-03-12T03:02:47.919Z,1.61
2017-03-12T03:03:58.637Z,1.67
2017-03-12T03:05:09.356Z,1.6
2017-03-12T03:06:20.062Z,1.67
2017-03-12T03:07:30.398Z,1.67
2017-03-12T03:08:41.071Z,1.61
2017-03-12T03:09:51.796Z,1.61
2017-03-12T03:11:02.521Z,1.58
2017-03-12T03:12:13.247Z,1.68
2017-03-12T03:13:23.965Z,1.68
2017-03-12T03:14:37.459Z,1.78
2017-03-12T03:15:48.155Z,1.71
2017-03-12T03:16:58.864Z,1.76
2017-03-12T03:18:09.597Z,1.78
2017-03-12T03:19:19.959Z,1.78
2017-03-12T03:20:30.267Z,1.85
2017-03-12T03:21:40.195Z,1.82
2017-03-12T03:22:50.916Z,1.81
2017-03-12T03:24:01.617Z,1.85
2017-03-12T03:25:12.330Z,1.86
2017-03-12T03:26:22.651Z,1.85
2017-03-12T03:27:33.382Z,1.85
2017-03-12T03:28:44.108Z,1.78
2017-03-12T03:29:54.833Z,1.82
2017-03-12T03:31:05.561Z,1.85
2017-03-12T03:32:16.264Z,1.85
2017-03-12T03:33:26.986Z,1.86
2017-03-12T03:34:37.717Z,1.86
2017-03-12T03:35:48.426Z,2.01
2017-03-12T03:36:59.142Z,2
2017-03-12T03:38:09.867Z,2.03
2017-03-12T03:39:20.176Z,2.1
2017-03-12T03:40:30.893Z,2.19
2017-03-12T03:41:41.628Z,2.4
2017-03-12T03:42:52.331Z,2.5
2017-03-12T03:44:03.046Z,2.65
2017-03-12T03:45:13.381Z,2.69
2017-03-12T03:46:23.693Z,2.73
2017-03-12T03:47:33.996Z,2.8
2017-03-12T03:48:44.715Z,2.87
2017-03-12T03:49:55.469Z,2.85
2017-03-12T03:51:06.182Z,2.98
2017-03-12T03:52:16.926Z,2.95
2017-03-12T03:53:27.624Z,2.95
2017-03-12T03:54:38.332Z,2.95
2017-03-12T03:55:49.051Z,3
2017-03-12T03:56:59.764Z,3.08
2017-03-12T03:58:10.071Z,3.08
2017-03-12T03:59:20.785Z,3.21
2017-03-12T04:00:31.500Z,3.16
2017-03-12T04:01:42.209Z,3.16
2017-03-12T04:02:52.949Z,3.26
2017-03-12T04:04:03.649Z,3.26
2017-03-12T04:05:14.353Z,3.13
2017-03-12T04:06:25.060Z,3.13
2017-03-12T04:07:35.373Z,3.06
2017-03-12T04:08:45.683Z,3.01
2017-03-12T04:09:56.401Z,2.98
2017-03-12T04:11:07.134Z,2.93
2017-03-12T04:12:17.847Z,2.95
2017-03-12T04:13:28.164Z,2.91
2017-03-12T04:14:38.873Z,2.8
2017-03-12T04:15:49.593Z,2.8
2017-03-12T04:17:00.326Z,2.73
2017-03-12T04:18:10.237Z,2.69
2017-03-12T04:19:20.940Z,2.7
2017-03-12T04:20:31.668Z,2.59
2017-03-12T04:21:42.382Z,2.62
2017-03-12T04:22:53.091Z,2.54
2017-03-12T04:24:03.410Z,2.54
2017-03-12T04:25:13.723Z,2.58
2017-03-12T04:26:24.480Z,2.41
2017-03-12T04:27:35.233Z,2.34
2017-03-12T04:28:45.575Z,2.23
2017-03-12T04:29:56.286Z,2.36
2017-03-12T04:31:07.026Z,2.19
2017-03-12T04:32:17.735Z,2.16
2017-03-12T04:33:28.079Z,2.15
2017-03-12T04:34:38.808Z,2.12
2017-03-12T04:35:49.524Z,2.1
2017-03-12T04:37:00.246Z,2.01
2017-03-12T04:38:10.580Z,2.07
2017-03-12T04:39:20.910Z,2.18
2017-03-12T04:40:31.622Z,2.03
2017-03-12T04:41:42.355Z,1.88
2017-03-12T04:42:53.086Z,1.85
2017-03-12T04:44:03.820Z,1.68
2017-03-12T04:45:14.580Z,1.56
2017-03-12T04:46:25.303Z,1.38
2017-03-12T04:47:36.041Z,1.39
2017-03-12T04:48:46.773Z,1.28
2017-03-12T04:49:57.479Z,1.22
2017-03-12T04:51:08.192Z,1.28
2017-03-12T04:52:18.899Z,1.24
2017-03-12T04:53:29.617Z,1.1
2017-03-12T04:54:40.334Z,1.06
2017-03-12T04:55:51.049Z,1.2
2017-03-12T04:57:01.808Z,1.1
2017-03-12T04:58:12.550Z,1.1
2017-03-12T04:59:23.282Z,1.21
2017-03-12T05:00:33.624Z,1.1
2017-03-12T05:01:43.535Z,1.18
2017-03-12T05:02:54.264Z,1.12
2017-03-12T05:04:04.609Z,1.06
2017-03-12T05:05:15.334Z,1.18
2017-03-12T05:06:25.667Z,1.07
2017-03-12T05:07:36.421Z,1.13
2017-03-12T05:08:47.146Z,1.12
2017-03-12T05:09:57.878Z,1.18
2017-03-12T05:11:08.604Z,1.12
2017-03-12T05:12:19.342Z,1.14
2017-03-12T05:13:29.658Z,1.12
2017-03-12T05:14:39.970Z,1.14
2017-03-12T05:15:50.691Z,1.18
2017-03-12T05:17:01.408Z,1.22
2017-03-12T05:18:11.753Z,1.09
2017-03-12T05:19:22.483Z,1.21
2017-03-12T05:20:33.189Z,1.21
2017-03-12T05:21:43.939Z,1.16
2017-03-12T05:22:54.658Z,1.18
2017-03-12T05:24:05.376Z,1.21
2017-03-12T05:25:16.091Z,1.18
2017-03-12T05:26:26.011Z,1.27
2017-03-12T05:27:36.728Z,1.12
2017-03-12T05:28:47.457Z,1.14
2017-03-12T05:29:58.156Z,1.25
2017-03-12T05:31:08.878Z,1.21
2017-03-12T05:32:19.610Z,1.21
2017-03-12T05:33:29.537Z,1.28
2017-03-12T05:34:40.253Z,1.24
2017-03-12T05:35:50.951Z,1.25
2017-03-12T05:37:01.684Z,1.31
2017-03-12T05:38:12.408Z,1.31
2017-03-12T05:39:23.135Z,1.32
2017-03-12T05:40:33.443Z,1.32
2017-03-12T05:41:44.161Z,1.43
2017-03-12T05:42:54.874Z,1.38
2017-03-12T05:44:05.578Z,1.39
2017-03-12T05:45:16.317Z,1.5
2017-03-12T05:46:26.238Z,1.5
2017-03-12T05:47:36.958Z,1.56
2017-03-12T05:48:47.689Z,1.75
2017-03-12T05:49:58.401Z,1.71
2017-03-12T05:51:09.117Z,1.79
2017-03-12T05:52:19.823Z,1.95
2017-03-12T05:53:30.538Z,2.03
2017-03-12T05:54:41.252Z,1.98
2017-03-12T05:55:52.027Z,2.14
2017-03-12T05:57:02.748Z,2.1
2017-03-12T05:58:13.464Z,2.1
2017-03-12T05:59:23.771Z,2
2017-03-12T06:00:34.086Z,1.97
2017-03-12T06:01:44.813Z,1.98
2017-03-12T06:02:55.518Z,1.89
2017-03-12T06:04:06.237Z,1.85
2017-03-12T06:05:16.945Z,1.81
2017-03-12T06:06:27.684Z,1.79
2017-03-12T06:07:38.407Z,1.79
2017-03-12T06:08:48.731Z,1.75
2017-03-12T06:09:59.449Z,1.79
2017-03-12T06:11:10.177Z,1.79
2017-03-12T06:12:20.882Z,1.86
2017-03-12T06:13:31.614Z,1.84
2017-03-12T06:14:42.333Z,1.84
2017-03-12T06:15:53.062Z,1.88
2017-03-12T06:17:03.768Z,1.93
2017-03-12T06:18:14.071Z,1.92
2017-03-12T06:19:24.399Z,2.01
2017-03-12T06:20:34.730Z,2.01
2017-03-12T06:21:45.467Z,1.93
2017-03-12T06:22:56.184Z,2
2017-03-12T06:24:06.884Z,2
2017-03-12T06:25:17.612Z,2.05
2017-03-12T06:26:27.538Z,2.03
2017-03-12T06:27:38.242Z,1.95
2017-03-12T06:28:48.951Z,2.01
2017-03-12T06:29:59.264Z,2.04
2017-03-12T06:31:09.603Z,2.04
2017-03-12T06:32:19.522Z,2.1
2017-03-12T06:33:29.835Z,2.14
2017-03-12T06:34:40.544Z,2.08
2017-03-12T06:35:51.270Z,2.12
2017-03-12T06:37:02.015Z,2.15
2017-03-12T06:38:12.740Z,2.07
2017-03-12T06:39:23.443Z,2.18
2017-03-12T06:40:34.152Z,2.19
2017-03-12T06:41:44.869Z,2.26
2017-03-12T06:42:55.572Z,2.23
2017-03-12T06:44:06.304Z,2.28
2017-03-12T06:45:17.036Z,2.33
2017-03-12T06:46:27.741Z,2.39
2017-03-12T06:47:38.490Z,2.47
2017-03-12T06:48:49.209Z,2.5
2017-03-12T06:49:59.939Z,2.55
2017-03-12T06:51:10.248Z,2.62
2017-03-12T06:52:20.958Z,2.65
2017-03-12T06:53:31.679Z,2.62
2017-03-12T06:54:42.009Z,2.61
2017-03-12T06:55:52.720Z,2.72
2017-03-12T06:57:03.450Z,2.77
2017-03-12T06:58:13.372Z,2.87
2017-03-12T06:59:24.088Z,2.93
2017-03-12T07:00:34.411Z,2.9
2017-03-12T07:01:45.165Z,2.87
2017-03-12T07:02:55.877Z,2.93
2017-03-12T07:04:06.192Z,2.88
2017-03-12T07:05:16.898Z,2.9
2017-03-12T07:06:26.833Z,2.82
2017-03-12T07:07:37.538Z,2.9
2017-03-12T07:08:48.291Z,2.94
2017-03-12T07:09:58.645Z,2.95
2017-03-12T07:11:09.403Z,2.98
2017-03-12T07:12:20.122Z,2.95
2017-03-12T07:13:30.445Z,2.97
2017-03-12T07:14:41.172Z,3
2017-03-12T07:15:51.905Z,3.08
2017-03-12T07:17:02.634Z,3.01
2017-03-12T07:18:13.369Z,3.12
2017-03-12T07:19:24.079Z,3.18
2017-03-12T07:20:34.807Z,3.19
2017-03-12T07:21:45.525Z,3.24
2017-03-12T07:22:56.228Z,3.3
2017-03-12T07:24:06.946Z,3.27
2017-03-12T07:25:17.276Z,3.37
2017-03-12T07:26:27.977Z,3.49
2017-03-12T07:27:38.704Z,3.45
2017-03-12T07:28:49.422Z,3.49
2017-03-12T07:30:00.148Z,3.53
2017-03-12T07:31:10.481Z,3.56
2017-03-12T07:32:20.804Z,3.64
2017-03-12T07:33:31.121Z,3.56
2017-03-12T07:34:41.822Z,3.76
2017-03-12T07:35:52.549Z,3.66
2017-03-12T07:37:03.255Z,3.82
2017-03-12T07:38:13.978Z,3.82
2017-03-12T07:39:24.696Z,3.77
2017-03-12T07:40:35.423Z,3.94
2017-03-12T07:41:46.200Z,4
2017-03-12T07:42:56.926Z,4.04
2017-03-12T07:44:07.688Z,4.04
2017-03-12T07:45:18.431Z,4.12
2017-03-12T07:46:28.752Z,4.1
2017-03-12T07:47:39.083Z,4.14
2017-03-12T07:48:49.000Z,4.13
2017-03-12T07:49:59.726Z,4.12
2017-03-12T07:51:10.448Z,4.07
2017-03-12T07:52:20.770Z,4.1
2017-03-12T07:53:31.494Z,4.04
2017-03-12T07:54:42.224Z,4.02
2017-03-12T07:55:52.947Z,3.96
2017-03-12T07:57:03.670Z,3.91
2017-03-12T07:58:14.378Z,3.95
2017-03-12T07:59:24.697Z,3.99
2017-03-12T08:00:35.442Z,4.07
2017-03-12T08:01:45.777Z,4.2
2017-03-12T08:02:56.496Z,4.22
2017-03-12T08:04:07.204Z,4.34
2017-03-12T08:05:17.925Z,4.43
2017-03-12T08:06:28.252Z,4.53
2017-03-12T08:07:38.565Z,4.5
2017-03-12T08:08:48.879Z,4.5
2017-03-12T08:09:59.610Z,4.63
2017-03-12T08:11:10.369Z,4.7
2017-03-12T08:12:21.087Z,4.78
2017-03-12T08:13:31.810Z,4.92
2017-03-12T08:14:42.513Z,5.01
2017-03-12T08:15:53.288Z,5.12
2017-03-12T08:17:04.025Z,5.23
2017-03-12T08:18:14.778Z,5.22
2017-03-12T08:19:25.518Z,5.37
2017-03-12T08:20:36.224Z,5.46
2017-03-12T08:21:46.962Z,5.55
2017-03-12T08:22:57.289Z,5.65
2017-03-12T08:24:07.614Z,5.61
2017-03-12T08:25:18.335Z,5.76
2017-03-12T08:26:29.056Z,5.8
2017-03-12T08:27:39.782Z,5.81
2017-03-12T08:28:50.498Z,5.84
2017-03-12T08:30:01.216Z,5.79
2017-03-12T08:31:11.935Z,5.8
2017-03-12T08:32:22.662Z,5.91
2017-03-12T08:33:32.970Z,5.87
2017-03-12T08:34:43.712Z,5.91
2017-03-12T08:35:54.433Z,5.98
2017-03-12T08:37:05.142Z,6.07
2017-03-12T08:38:15.858Z,6.2
2017-03-12T08:39:26.578Z,6.34
2017-03-12T08:40:36.906Z,6.44
2017-03-12T08:41:47.634Z,6.56
2017-03-12T08:42:58.355Z,6.6
2017-03-12T08:44:09.077Z,6.67
2017-03-12T08:45:19.819Z,6.78
2017-03-12T08:46:30.166Z,6.85
2017-03-12T08:47:40.087Z,6.9
2017-03-12T08:48:50.803Z,6.74
2017-03-12T08:50:01.518Z,6.75
2017-03-12T08:51:12.239Z,6.74
2017-03-12T08:52:22.561Z,6.83
2017-03-12T08:53:33.276Z,6.78
2017-03-12T08:54:43.986Z,6.92
2017-03-12T08:55:54.704Z,7.15
2017-03-12T08:57:05.424Z,7.28
2017-03-12T08:58:15.736Z,7.51
2017-03-12T08:59:26.471Z,7.64
2017-03-12T09:00:37.204Z,7.77
2017-03-12T09:01:47.517Z,7.96
2017-03-12T09:02:58.244Z,7.98
2017-03-12T09:04:08.965Z,7.98
2017-03-12T09:05:19.703Z,8.17
2017-03-12T09:06:30.428Z,8.18
2017-03-12T09:07:40.360Z,8.2
2017-03-12T09:08:51.079Z,8.21
2017-03-12T09:10:01.800Z,8.18
2017-03-12T09:11:12.507Z,8.24
2017-03-12T09:12:22.852Z,8.21
2017-03-12T09:13:33.188Z,8.18
2017-03-12T09:14:43.937Z,8.21
2017-03-12T09:15:54.646Z,8.23
2017-03-12T09:17:05.347Z,8.21
2017-03-12T09:18:16.065Z,8.06
2017-03-12T09:19:25.992Z,8.03
2017-03-12T09:20:36.704Z,7.91
2017-03-12T09:21:47.423Z,8.09
2017-03-12T09:22:58.169Z,7.98
2017-03-12T09:24:08.899Z,7.98
2017-03-12T09:25:19.606Z,7.88
2017-03-12T09:26:30.348Z,7.95
2017-03-12T09:27:40.279Z,7.91
2017-03-12T09:28:50.609Z,7.93
2017-03-12T09:30:01.335Z,7.87
2017-03-12T09:31:12.047Z,7.95
2017-03-12T09:32:22.782Z,7.88
2017-03-12T09:33:33.515Z,7.88
2017-03-12T09:34:44.235Z,7.78
2017-03-12T09:35:54.958Z,7.85
2017-03-12T09:37:05.681Z,7.85
2017-03-12T09:38:16.413Z,7.81
2017-03-12T09:39:27.146Z,7.88
2017-03-12T09:40:37.460Z,7.91
2017-03-12T09:41:48.175Z,7.91
2017-03-12T09:42:58.891Z,8.02
2017-03-12T09:44:09.222Z,7.99
2017-03-12T09:45:19.560Z,8.06
2017-03-12T09:46:29.899Z,8.2
2017-03-12T09:47:39.818Z,8.2
2017-03-12T09:48:50.547Z,8.28
2017-03-12T09:50:01.284Z,8.18
2017-03-12T09:51:12.019Z,8.21
2017-03-12T09:52:22.735Z,8.26
2017-03-12T09:53:33.469Z,8.27
2017-03-12T09:54:44.204Z,8.18
2017-03-12T09:55:54.915Z,8.36
2017-03-12T09:57:05.623Z,8.36
2017-03-12T09:58:16.343Z,8.45
2017-03-12T09:59:26.270Z,8.45
2017-03-12T10:00:36.595Z,8.46
2017-03-12T10:01:47.319Z,8.52
2017-03-12T10:02:58.042Z,8.54
2017-03-12T10:04:08.770Z,8.57
2017-03-12T10:05:19.498Z,8.68
2017-03-12T10:06:29.822Z,8.72
2017-03-12T10:07:40.162Z,8.75
2017-03-12T10:08:50.875Z,8.72
2017-03-12T10:10:01.608Z,8.72
2017-03-12T10:11:12.344Z,8.68
2017-03-12T10:12:22.676Z,8.71
2017-03-12T10:13:33.400Z,8.63
2017-03-12T10:14:44.119Z,8.72
2017-03-12T10:15:54.825Z,8.68
2017-03-12T10:17:05.590Z,8.71
2017-03-12T10:18:16.330Z,8.71
2017-03-12T10:19:27.045Z,8.75
2017-03-12T10:20:37.778Z,8.71
2017-03-12T10:21:48.501Z,8.79
2017-03-12T10:22:58.833Z,8.78
2017-03-12T10:24:09.566Z,8.82
2017-03-12T10:25:20.282Z,8.89
2017-03-12T10:26:30.195Z,8.97
2017-03-12T10:27:40.528Z,9.05
2017-03-12T10:28:51.254Z,9.13
2017-03-12T10:30:02.004Z,9.22
2017-03-12T10:31:12.724Z,9.3
2017-03-12T10:32:23.024Z,9.22
2017-03-12T10:33:33.334Z,9.39
2017-03-12T10:34:44.070Z,9.58
2017-03-12T10:35:54.813Z,9.54
2017-03-12T10:37:05.132Z,9.64
2017-03-12T10:38:15.857Z,9.66
2017-03-12T10:39:26.179Z,9.76
2017-03-12T10:40:36.927Z,9.84
2017-03-12T10:41:47.642Z,9.92
2017-03-12T10:42:58.366Z,10.06
2017-03-12T10:44:09.083Z,10.23
2017-03-12T10:45:19.812Z,10.36
2017-03-12T10:46:30.138Z,10.38
2017-03-12T10:47:40.855Z,10.55
2017-03-12T10:48:51.178Z,10.53
2017-03-12T10:50:01.902Z,10.18
2017-03-12T10:51:12.659Z,9.74
2017-03-12T10:52:23.007Z,9.59
2017-03-12T10:53:33.728Z,9.69
2017-03-12T10:54:44.456Z,9.59
2017-03-12T10:55:55.284Z,9.64
2017-03-12T10:57:05.621Z,9.77
2017-03-12T10:58:16.354Z,9.77
2017-03-12T10:59:26.691Z,9.8
2017-03-12T11:00:37.435Z,9.59
2017-03-12T11:01:47.755Z,9.82
2017-03-12T11:02:58.486Z,9.77
2017-03-12T11:04:09.212Z,9.59
2017-03-12T11:05:19.935Z,9.22
2017-03-12T11:06:30.263Z,9.13
2017-03-12T11:07:40.986Z,9.22
2017-03-12T11:08:51.710Z,9.4
2017-03-12T11:10:02.426Z,9.52
2017-03-12T11:11:12.743Z,9.11
2017-03-12T11:12:23.082Z,8.69
2017-03-12T11:13:33.805Z,8.61
2017-03-12T11:14:44.123Z,8.49
2017-03-12T11:15:54.858Z,8.39
2017-03-12T11:17:05.585Z,8.23
2017-03-12T11:18:16.302Z,8.18
2017-03-12T11:19:26.644Z,8.42
2017-03-12T11:20:37.382Z,8.45
2017-03-12T11:21:48.107Z,8.57
2017-03-12T11:22:58.854Z,8.6
2017-03-12T11:24:09.590Z,8.57
2017-03-12T11:25:20.314Z,8.41
2017-03-12T11:26:31.050Z,8.35
2017-03-12T11:27:41.798Z,8.39
2017-03-12T11:28:52.541Z,8.46
2017-03-12T11:30:03.274Z,8.68
2017-03-12T11:31:13.992Z,8.92
2017-03-12T11:32:24.335Z,9.21
2017-03-12T11:33:35.065Z,9.64
2017-03-12T11:34:45.806Z,9.91
2017-03-12T11:35:56.542Z,10.09
2017-03-12T11:37:07.279Z,9.85
2017-03-12T11:38:17.619Z,9.66
2017-03-12T11:39:27.950Z,9.95
2017-03-12T11:40:37.476Z,10.24
2017-03-12T11:41:48.214Z,10.41
2017-03-12T11:42:58.934Z,10.65
2017-03-12T11:44:09.660Z,10.86
2017-03-12T11:45:20.401Z,11.23
2017-03-12T11:46:30.734Z,11.51
2017-03-12T11:47:40.670Z,11.67
2017-03-12T11:48:51.422Z,11.99
2017-03-12T11:50:02.138Z,12.15
2017-03-12T11:51:12.880Z,12.29
2017-03-12T11:52:23.211Z,12.45
2017-03-12T11:53:33.931Z,12.51
2017-03-12T11:54:44.249Z,12.53
2017-03-12T11:55:54.988Z,12.63
2017-03-12T11:57:05.698Z,12.62
2017-03-12T11:58:16.431Z,12.55
2017-03-12T11:59:26.372Z,12.51
2017-03-12T12:00:36.698Z,12.43
2017-03-12T12:01:47.435Z,12.37
2017-03-12T12:02:58.170Z,12.29
2017-03-12T12:04:08.904Z,12.15
2017-03-12T12:05:19.622Z,12.02
2017-03-12T12:06:29.951Z,11.86
2017-03-12T12:07:40.700Z,11.81
2017-03-12T12:08:51.455Z,11.71
2017-03-12T12:10:02.177Z,11.63
2017-03-12T12:11:12.921Z,11.52
2017-03-12T12:12:23.642Z,11.44
2017-03-12T12:13:33.984Z,11.37
2017-03-12T12:14:44.731Z,11.07
2017-03-12T12:15:55.452Z,10.8
2017-03-12T12:17:05.365Z,10.83
2017-03-12T12:18:15.694Z,10.92
2017-03-12T12:19:26.441Z,11.08
2017-03-12T12:20:37.182Z,11.13
2017-03-12T12:21:47.892Z,11.07
2017-03-12T12:22:58.615Z,11.1
2017-03-12T12:24:08.565Z,11.07
2017-03-12T12:25:19.303Z,11.08
2017-03-12T12:26:29.624Z,11.15
2017-03-12T12:27:39.951Z,11.1
2017-03-12T12:28:50.678Z,11.15
2017-03-12T12:30:01.422Z,11.12
2017-03-12T12:31:11.749Z,11.1
2017-03-12T12:32:21.718Z,11.01
2017-03-12T12:33:32.455Z,10.95
2017-03-12T12:34:43.196Z,10.97
2017-03-12T12:35:53.928Z,10.86
2017-03-12T12:37:04.666Z,10.86
2017-03-12T12:38:15.384Z,10.89
2017-03-12T12:39:26.121Z,10.97
2017-03-12T12:40:36.864Z,10.97
2017-03-12T12:41:47.594Z,10.89
2017-03-12T12:42:58.338Z,10.87
2017-03-12T12:44:09.069Z,10.71
2017-03-12T12:45:19.401Z,10.67
2017-03-12T12:46:30.157Z,10.68
2017-03-12T12:47:40.114Z,10.58
2017-03-12T12:48:50.831Z,10.57
2017-03-12T12:50:01.557Z,10.49
2017-03-12T12:51:11.877Z,10.48
2017-03-12T12:52:22.237Z,10.38
2017-03-12T12:53:32.599Z,10.23
2017-03-12T12:54:42.911Z,10.28
2017-03-12T12:55:53.639Z,10.17
2017-03-12T12:57:04.384Z,10.09
2017-03-12T12:58:15.122Z,10.02
2017-03-12T12:59:25.874Z,9.87
2017-03-12T13:00:35.822Z,9.88
2017-03-12T13:01:46.592Z,9.88
2017-03-12T13:02:57.326Z,9.87
2017-03-12T13:04:07.648Z,9.77
2017-03-12T13:05:18.381Z,9.66
2017-03-12T13:06:29.099Z,9.64
2017-03-12T13:07:39.841Z,9.67
2017-03-12T13:08:50.600Z,9.62
2017-03-12T13:10:01.331Z,9.54
2017-03-12T13:11:11.666Z,9.59
2017-03-12T13:12:22.375Z,9.63
2017-03-12T13:13:32.288Z,9.49
2017-03-12T13:14:42.616Z,9.44
2017-03-12T13:15:53.337Z,9.52
2017-03-12T13:17:04.055Z,9.48
2017-03-12T13:18:14.789Z,9.37
2017-03-12T13:19:25.508Z,9.31
2017-03-12T13:20:35.835Z,9.42
2017-03-12T13:21:46.567Z,9.37
2017-03-12T13:22:57.289Z,9.36
2017-03-12T13:24:08.045Z,9.34
2017-03-12T13:25:18.765Z,9.37
2017-03-12T13:26:29.481Z,9.34
2017-03-12T13:27:40.225Z,9.3
2017-03-12T13:28:50.961Z,9.15
2017-03-12T13:30:01.673Z,9.29
2017-03-12T13:31:12.020Z,9.29
2017-03-12T13:32:22.762Z,9.27
2017-03-12T13:33:33.481Z,9.3
2017-03-12T13:34:44.205Z,9.3
2017-03-12T13:35:54.952Z,9.24
2017-03-12T13:37:05.680Z,9.29
2017-03-12T13:38:16.412Z,9.3
2017-03-12T13:39:26.743Z,9.19
2017-03-12T13:40:37.468Z,9.13
2017-03-12T13:41:48.193Z,9.15
2017-03-12T13:42:58.963Z,9.13
2017-03-12T13:44:09.703Z,9.13
2017-03-12T13:45:20.408Z,9.13
2017-03-12T13:46:30.734Z,9.18
2017-03-12T13:47:41.078Z,9.15
2017-03-12T13:48:51.801Z,9.18
2017-03-12T13:50:02.509Z,9.18
2017-03-12T13:51:13.271Z,9.15
2017-03-12T13:52:24.006Z,9.13
2017-03-12T13:53:33.949Z,9.19
2017-03-12T13:54:44.676Z,9.19
2017-03-12T13:55:55.454Z,9.13
2017-03-12T13:57:05.785Z,9.16
2017-03-12T13:58:16.521Z,9.11
2017-03-12T13:59:27.241Z,9.13
2017-03-12T14:00:37.568Z,9.15
2017-03-12T14:01:48.294Z,9.22
2017-03-12T14:02:59.009Z,9.15
2017-03-12T14:04:09.756Z,9.08
2017-03-12T14:05:20.467Z,9.16
2017-03-12T14:06:31.209Z,9.13
2017-03-12T14:07:41.928Z,9.16
2017-03-12T14:08:52.689Z,9.09
2017-03-12T14:10:03.421Z,9.09
2017-03-12T14:11:13.357Z,9.13
2017-03-12T14:12:24.102Z,9.08
2017-03-12T14:13:34.418Z,9.09
2017-03-12T14:14:45.156Z,9.03
2017-03-12T14:15:55.902Z,8.95
2017-03-12T14:17:06.637Z,8.95
2017-03-12T14:18:17.354Z,8.93
2017-03-12T14:19:28.073Z,8.86
2017-03-12T14:20:38.798Z,8.77
2017-03-12T14:21:49.519Z,8.77
2017-03-12T14:23:00.289Z,8.75
2017-03-12T14:24:10.998Z,8.66
2017-03-12T14:25:21.708Z,8.72
2017-03-12T14:26:32.432Z,8.64
2017-03-12T14:27:43.149Z,8.54
2017-03-12T14:28:53.909Z,8.56
2017-03-12T14:30:04.624Z,8.45
2017-03-12T14:31:17.344Z,8.5
2017-03-12T14:32:28.075Z,8.38
2017-03-12T14:33:38.774Z,8.39
2017-03-12T14:34:49.514Z,8.24
2017-03-12T14:36:00.266Z,8.11
2017-03-12T14:37:11.005Z,7.95
2017-03-12T14:38:21.718Z,7.93
2017-03-12T14:39:32.428Z,7.88
2017-03-12T14:40:43.168Z,7.83
2017-03-12T14:41:53.900Z,7.9
2017-03-12T14:43:04.636Z,7.87
2017-03-12T14:44:15.396Z,7.87
2017-03-12T14:45:26.152Z,7.93
2017-03-12T14:46:36.493Z,7.88
2017-03-12T14:47:47.222Z,7.91
2017-03-12T14:48:57.954Z,7.88
2017-03-12T14:50:08.673Z,7.91
2017-03-12T14:51:19.405Z,7.96
2017-03-12T14:52:30.145Z,7.95
2017-03-12T14:53:40.856Z,7.93
2017-03-12T14:54:51.603Z,7.99
2017-03-12T14:56:01.915Z,7.96
2017-03-12T14:57:12.239Z,7.96
2017-03-12T14:58:22.965Z,7.95
2017-03-12T14:59:33.301Z,8.02
2017-03-12T15:00:44.043Z,7.96
2017-03-12T15:01:54.755Z,7.95
2017-03-12T15:03:05.487Z,8.01
2017-03-12T15:04:15.812Z,7.99
2017-03-12T15:05:26.570Z,8.08
2017-03-12T15:06:37.322Z,8.02
2017-03-12T15:07:47.262Z,8.03
2017-03-12T15:08:57.991Z,7.99
2017-03-12T15:10:08.720Z,7.9
2017-03-12T15:11:19.050Z,7.96
2017-03-12T15:12:29.757Z,7.99
2017-03-12T15:13:39.706Z,7.99
2017-03-12T15:14:50.040Z,7.93
2017-03-12T15:16:00.742Z,7.88
2017-03-12T15:17:11.486Z,7.9
2017-03-12T15:18:21.810Z,7.93
2017-03-12T15:19:32.544Z,7.9
2017-03-12T15:20:42.480Z,7.9
2017-03-12T15:21:52.799Z,7.87
2017-03-12T15:23:03.531Z,7.87
2017-03-12T15:24:14.247Z,7.8
2017-03-12T15:25:24.981Z,7.77
2017-03-12T15:26:35.711Z,7.78
2017-03-12T15:27:46.030Z,7.81
2017-03-12T15:28:56.748Z,7.74
2017-03-12T15:30:07.468Z,7.62
2017-03-12T15:31:18.176Z,7.67
2017-03-12T15:32:28.539Z,7.58
2017-03-12T15:33:39.328Z,7.53
2017-03-12T15:34:50.050Z,7.39
2017-03-12T15:36:00.778Z,7.41
2017-03-12T15:37:11.094Z,7.41
2017-03-12T15:38:21.823Z,7.23
2017-03-12T15:39:32.136Z,7.25
2017-03-12T15:40:42.502Z,7.23